This is the latest recevied weather packets stored in our database for station/object I5EKX-13. If no packets are shown the sender has not sent any weather packets the latest 10 day(s).
| Time | Temp. | Humidity | Pressure | Rain* | Wind** | Luminosity | Snow |
|---|---|---|---|---|---|---|---|
| 1777281059 | 21.11° C | 64% | 1015.3 hPa | - | - | - | - |
| 1777279854 | 23.33° C | 61% | 1015.3 hPa | - | - | - | - |
| 1777278650 | 21.67° C | 63% | 1015.4 hPa | - | - | - | - |
| 1777277446 | 21.67° C | 64% | 1015.4 hPa | - | - | - | - |
| 1777275893 | 20° C | 67% | 1015.2 hPa | - | - | - | - |
| 1777274689 | 18.89° C | 70% | 1015.2 hPa | - | - | - | - |
| 1777272281 | 16.11° C | 81% | 1015.1 hPa | - | - | - | - |
| 1777271079 | 15.56° C | 84% | 1015.1 hPa | - | - | - | - |
| 1777269873 | 14.44° C | 90% | 1015 hPa | - | - | - | - |
| 1777268669 | 12.22° C | 88% | 1015 hPa | - | - | - | - |
| 1777267465 | 11.11° C | 85% | 1014.9 hPa | - | - | - | - |
| 1777266261 | 10° C | 84% | 1014.6 hPa | - | - | - | - |
| 1777265057 | 9.44° C | 84% | 1014.5 hPa | - | - | - | - |
| 1777263853 | 9.44° C | 85% | 1014.3 hPa | - | - | - | - |
| 1777262649 | 9.44° C | 84% | 1014.2 hPa | - | - | - | - |
| 1777261445 | 9.44° C | 84% | 1014.1 hPa | - | - | - | - |
| 1777260242 | 9.44° C | 84% | 1014.2 hPa | - | - | - | - |
| 1777259038 | 9.44° C | 84% | 1014.2 hPa | - | - | - | - |
| 1777257833 | 9.44° C | 84% | 1014.2 hPa | - | - | - | - |
| 1777256629 | 9.44° C | 87% | 1014.2 hPa | - | - | - | - |
| 1777255426 | 9.44° C | 85% | 1014.1 hPa | - | - | - | - |
| 1777254221 | 9.44° C | 83% | 1014.1 hPa | - | - | - | - |
| 1777253017 | 9.44° C | 84% | 1014.1 hPa | - | - | - | - |
| 1777251814 | 9.44° C | 83% | 1014.3 hPa | - | - | - | - |
| 1777250610 | 9.44° C | 83% | 1014.5 hPa | - | - | - | - |
* Rain since midnight (hover to see other rain measurements)
** Current wind speed in m/s (hover to see current wind gust speed)